Time;durP1;ratioP1;P1;durP2;ratioP2;P2;SDS_P1;SDS_P2;PMS_P1;PMS_P2;Temp;Humidity;BMP_temperature;BMP_pressure;BME280_temperature;BME280_humidity;BME280_pressure;Samples;Min_cycle;Max_cycle;Signal;HPM_P1;HPM_P2
2022/08/12 00:44:14;;;;;;;9.35;3.20;;;;;;;;;;4961494;28;20093;-77
2022/08/12 00:46:50;;;;;;;6.07;3.42;;;;;;;19.64;64.57;68952.19;4968979;28;20046;-77
2022/08/12 00:49:17;;;;;;;5.75;3.20;;;;;;;19.56;65.20;68952.28;4969646;28;20175;-77
2022/08/12 00:54:30;;;;;;;8.15;3.85;;;;;;;19.47;66.16;68941.97;4969187;28;20057;-78
2022/08/12 00:56:57;;;;;;;6.07;3.38;;;;;;;19.48;65.89;68940.44;4983430;28;20065;-77
2022/08/12 00:59:23;;;;;;;5.00;3.67;;;;;;;19.35;66.36;68925.56;4988493;28;20034;-77
2022/08/12 01:01:51;;;;;;;8.48;3.40;;;;;;;19.39;66.86;68930.72;4961012;28;20047;-77
2022/08/12 01:12:41;;;;;;;5.90;3.65;;;;;;;19.34;67.03;68927.16;4975326;28;20114;-77
2022/08/12 01:15:08;;;;;;;7.82;3.70;;;;;;;19.29;67.60;68919.28;4968195;28;20144;-77
2022/08/12 01:17:34;;;;;;;6.38;3.60;;;;;;;19.28;67.59;68918.16;4967928;28;20069;-77
2022/08/12 01:20:05;;;;;;;5.68;3.78;;;;;;;19.25;67.64;68916.84;4975996;28;20046;-77
2022/08/12 01:22:44;;;;;;;6.07;3.58;;;;;;;19.18;68.41;68906.72;4948042;28;20049;-77
2022/08/12 01:25:16;;;;;;;5.63;3.90;;;;;;;19.19;68.20;68907.88;4969024;28;20050;-77
2022/08/12 01:27:43;;;;;;;8.68;4.35;;;;;;;19.15;68.46;68903.88;4966080;28;20879;-77
2022/08/12 01:30:12;;;;;;;7.55;4.18;;;;;;;19.13;68.44;68901.00;4970235;28;20050;-77
2022/08/12 01:32:40;;;;;;;7.10;4.03;;;;;;;19.11;68.70;68899.31;4966933;28;20055;-77
2022/08/12 01:35:05;;;;;;;8.80;4.30;;;;;;;19.04;68.65;68891.28;4971021;28;20034;-77
2022/08/12 01:37:33;;;;;;;6.35;4.35;;;;;;;;;;4970177;28;20610;-77
2022/08/12 01:40:00;;;;;;;6.00;3.67;;;;;;;;;;4970139;28;20540;-77
2022/08/12 01:42:27;;;;;;;8.15;4.22;;;;;;;;;;4970139;28;20509;-77
2022/08/12 01:44:53;;;;;;;5.43;4.10;;;;;;;18.87;69.87;68871.88;4976746;28;20057;-77
2022/08/12 01:47:31;;;;;;;9.77;4.60;;;;;;;18.83;70.10;68867.88;4983812;28;20663;-77
2022/08/12 01:50:19;;;;;;;6.13;4.53;;;;;;;18.76;70.63;68859.31;4945627;28;20060;-77
2022/08/12 01:52:54;;;;;;;7.28;4.53;;;;;;;18.77;70.56;68860.47;4971207;28;20100;-77
2022/08/12 01:55:27;;;;;;;9.93;4.82;;;;;;;18.74;70.98;68860.31;4971476;28;20062;-77
2022/08/12 01:59:44;;;;;;;9.75;4.88;;;;;;;18.75;69.99;68863.56;4969026;28;20520;-76
2022/08/12 02:01:17;;;;;;;7.28;4.65;;;;;;;;;;4942860;28;20051;-76
2022/08/12 02:12:42;;;;;;;6.65;4.45;;;;;;;18.54;71.61;68834.75;4954046;28;20050;-76
2022/08/12 02:15:11;;;;;;;7.07;4.57;;;;;;;;;;4941699;28;20051;-76
2022/08/12 02:17:56;;;;;;;6.50;4.78;;;;;;;18.49;71.26;68830.16;4968138;28;20046;-77
2022/08/12 02:20:21;;;;;;;6.50;4.90;;;;;;;;;;4965734;28;20047;-77
2022/08/12 02:22:49;;;;;;;7.03;5.10;;;;;;;18.44;71.88;68823.88;4967829;28;20038;-76
2022/08/12 02:25:30;;;;;;;8.85;5.47;;;;;;;;;;4969048;28;20634;-76
2022/08/12 02:27:56;;;;;;;7.72;5.07;;;;;;;18.40;72.21;68822.03;4969192;28;20125;-76
2022/08/12 02:30:31;;;;;;;8.73;5.10;;;;;;;18.37;72.38;68816.47;4950668;28;20070;-78
2022/08/12 02:32:59;;;;;;;8.32;5.03;;;;;;;18.31;72.83;68811.75;4974383;28;20046;-78
2022/08/12 02:35:25;;;;;;;6.50;5.30;;;;;;;;;;4970461;28;20414;-78
2022/08/12 02:37:54;;;;;;;9.23;5.53;;;;;;;18.29;72.79;68806.75;4975033;28;20039;-78
2022/08/12 02:40:20;;;;;;;;;;;;;;;18.24;72.96;68804.91;4956029;28;20050;-77
2022/08/12 02:43:02;;;;;;;8.00;4.97;;;;;;;18.15;73.07;68791.34;4956053;28;20337;-77
2022/08/12 02:45:52;;;;;;;8.30;5.28;;;;;;;18.10;73.27;68785.66;4969020;28;20046;-78
2022/08/12 02:48:32;;;;;;;9.38;5.80;;;;;;;18.14;73.02;68790.78;4975537;28;20063;-77
2022/08/12 02:51:04;;;;;;;7.32;5.22;;;;;;;18.10;73.28;68788.34;4949813;28;20043;-78
2022/08/12 02:53:33;;;;;;;6.97;5.20;;;;;;;18.12;73.48;68790.63;4973056;28;20046;-77
2022/08/12 02:55:58;;;;;;;8.27;5.72;;;;;;;;;;4972233;28;20054;-78
2022/08/12 02:58:25;;;;;;;10.27;5.35;;;;;;;18.09;73.59;68785.06;4974269;28;20039;-77
2022/08/12 03:00:51;;;;;;;10.13;6.10;;;;;;;18.02;73.98;68780.34;4972274;28;20043;-78
2022/08/12 03:03:20;;;;;;;7.57;5.88;;;;;;;17.97;74.14;68771.94;4956888;28;20058;-78
2022/08/12 03:05:58;;;;;;;8.48;5.32;;;;;;;17.90;74.22;68766.66;4974783;28;20062;-78
2022/08/12 03:08:29;;;;;;;8.07;5.95;;;;;;;17.84;74.65;68756.53;4974348;28;20133;-76
2022/08/12 03:11:02;;;;;;;8.32;5.97;;;;;;;17.81;75.06;68754.25;4970786;28;20043;-78
2022/08/12 03:13:29;;;;;;;9.77;6.32;;;;;;;17.78;74.96;68750.25;4973303;28;20093;-77
2022/08/12 03:15:55;;;;;;;10.07;6.05;;;;;;;17.77;74.88;68755.06;4973971;28;20039;-78
2022/08/12 03:18:30;;;;;;;7.70;5.75;;;;;;;17.76;74.98;68748.53;4973900;28;20070;-78
2022/08/12 03:20:58;;;;;;;9.40;6.13;;;;;;;17.77;75.12;68751.78;4969913;28;20038;-77
2022/08/12 03:23:24;;;;;;;8.13;6.20;;;;;;;17.74;74.52;68745.69;4967730;28;20070;-79
2022/08/12 03:25:51;;;;;;;6.72;5.95;;;;;;;17.69;75.37;68740.53;4973662;28;20481;-77
2022/08/12 03:28:48;;;;;;;9.18;6.20;;;;;;;17.66;75.35;68737.09;4974552;28;20331;-78
2022/08/12 03:31:05;;;;;;;7.53;6.15;;;;;;;17.61;75.59;68734.13;4970428;28;20063;-77
2022/08/12 03:33:35;;;;;;;9.18;6.35;;;;;;;17.61;75.84;68736.81;4972481;28;20096;-78
2022/08/12 03:36:03;;;;;;;8.73;6.30;;;;;;;17.54;76.11;68723.41;4953508;28;20134;-78
2022/08/12 03:38:33;;;;;;;7.75;5.90;;;;;;;17.54;75.98;68726.69;4970346;28;20053;-77
2022/08/12 04:00:35;;;;;;;9.82;6.53;;;;;;;17.39;76.36;68709.00;4971376;28;20096;-78
2022/08/12 04:03:00;;;;;;;;;;;;;;;17.33;76.67;68694.66;4971553;28;20042;-77
2022/08/12 04:05:30;;;;;;;10.25;6.28;;;;;;;17.25;77.06;68696.84;4961436;28;19920;-78
2022/08/12 04:07:58;;;;;;;9.13;6.88;;;;;;;17.25;77.08;68693.59;4971860;28;20215;-78
2022/08/12 04:13:18;;;;;;;8.45;7.32;;;;;;;17.26;76.89;68695.31;4962791;28;20338;-78
2022/08/12 04:15:45;;;;;;;9.07;7.15;;;;;;;17.19;77.32;68690.00;4955507;28;20043;-77
2022/08/12 04:18:17;;;;;;;9.70;6.90;;;;;;;17.20;77.25;68685.75;4960518;28;20414;-77
2022/08/12 04:20:45;;;;;;;9.07;6.65;;;;;;;17.16;77.52;68686.03;4971430;28;20094;-78
2022/08/12 04:23:13;;;;;;;9.00;7.10;;;;;;;17.13;77.62;68678.34;4968162;28;20062;-76
2022/08/12 04:25:39;;;;;;;9.68;7.18;;;;;;;17.11;77.30;68681.44;4973608;28;20107;-77
2022/08/12 04:28:07;;;;;;;9.93;6.32;;;;;;;17.11;77.31;68680.88;4974203;28;20538;-77
2022/08/12 04:30:32;;;;;;;11.45;6.95;;;;;;;;;;4972502;28;20035;-78
2022/08/12 04:32:58;;;;;;;8.45;6.82;;;;;;;17.10;77.73;68674.94;4956632;28;20067;-76
2022/08/12 04:35:24;;;;;;;8.85;6.63;;;;;;;17.08;77.49;68674.78;4972387;28;20042;-77
2022/08/12 04:37:54;;;;;;;9.85;6.72;;;;;;;17.08;77.98;68677.47;4967824;28;20522;-77
2022/08/12 04:40:22;;;;;;;13.45;7.70;;;;;;;17.03;77.99;68666.97;4968042;28;20039;-77
2022/08/12 04:42:48;;;;;;;9.63;7.50;;;;;;;17.02;77.87;68665.25;4967784;28;20063;-76
2022/08/12 04:45:51;;;;;;;9.23;7.18;;;;;;;17.04;77.90;68670.22;4972820;28;20125;-78
2022/08/12 04:50:10;;;;;;;13.10;7.97;;;;;;;17.06;77.78;68664.41;4971196;28;20062;-80
2022/08/12 05:01:52;;;;;;;11.25;7.45;;;;;;;17.12;77.78;68676.66;4800133;29;20462;-76
2022/08/12 05:04:20;;;;;;;8.60;7.22;;;;;;;17.13;78.01;68678.34;4927339;29;20138;-77
2022/08/12 05:06:47;;;;;;;12.15;8.02;;;;;;;17.16;78.03;68681.22;4926600;29;20040;-78
2022/08/12 05:09:13;;;;;;;11.02;7.60;;;;;;;17.23;77.33;68689.19;4929195;29;20047;-78
2022/08/12 05:11:39;;;;;;;8.90;7.22;;;;;;;17.30;77.25;68696.63;4928926;29;20043;-78
2022/08/12 05:14:04;;;;;;;9.15;7.22;;;;;;;;;;4927005;29;20111;-77
2022/08/12 05:16:30;;;;;;;10.93;7.55;;;;;;;17.43;76.66;68713.56;4926878;29;20072;-77
2022/08/12 05:18:55;;;;;;;10.75;7.30;;;;;;;17.47;76.29;68720.81;4927062;29;20594;-77
2022/08/12 05:21:21;;;;;;;10.13;7.47;;;;;;;17.53;76.77;68722.84;4928056;29;20056;-78
2022/08/12 05:23:46;;;;;;;9.63;7.25;;;;;;;17.54;76.51;68728.81;4930159;29;20047;-77
2022/08/12 05:26:12;;;;;;;10.05;8.13;;;;;;;17.62;75.56;68732.56;4930662;29;20050;-77
2022/08/12 05:28:37;;;;;;;8.60;7.13;;;;;;;17.66;75.98;68737.09;4926194;29;20043;-76
2022/08/12 05:31:03;;;;;;;9.38;7.30;;;;;;;;;;4928043;29;20078;-77
2022/08/12 05:33:39;;;;;;;9.63;6.70;;;;;;;17.74;75.36;68740.84;4931119;29;20763;-78
2022/08/12 05:36:13;;;;;;;9.40;7.32;;;;;;;17.84;75.18;68759.22;4944858;28;20062;-77
2022/08/12 05:38:55;;;;;;;9.07;6.80;;;;;;;17.93;74.82;68767.38;4932666;29;20043;-78
2022/08/12 05:41:22;;;;;;;8.77;7.18;;;;;;;17.96;75.14;68773.50;4932968;29;20040;-77
2022/08/12 05:44:01;;;;;;;9.55;7.18;;;;;;;18.05;74.77;68780.50;4932389;29;20063;-77
2022/08/12 05:46:28;;;;;;;12.10;7.80;;;;;;;18.15;74.12;68794.59;4924207;29;20407;-77
2022/08/12 05:48:54;;;;;;;9.13;7.40;;;;;;;;;;4928964;29;20558;-77
2022/08/12 05:51:26;;;;;;;12.32;7.55;;;;;;;18.34;73.19;68817.88;4930852;29;20059;-76
2022/08/12 05:53:52;;;;;;;8.02;7.20;;;;;;;;;;4931046;29;20056;-76
2022/08/12 05:56:34;;;;;;;12.85;8.13;;;;;;;18.47;73.64;68827.31;4931719;29;20419;-77
2022/08/12 05:59:01;;;;;;;10.55;7.32;;;;;;;;;;4929294;29;20039;-77
2022/08/12 06:01:28;;;;;;;8.73;7.20;;;;;;;18.66;72.60;68849.00;4930815;29;20423;-76
2022/08/12 06:03:54;;;;;;;10.55;7.35;;;;;;;18.73;71.59;68859.16;4931018;29;20079;-77
2022/08/12 06:06:21;;;;;;;10.38;7.35;;;;;;;18.86;71.26;68871.31;4931717;29;20040;-77
2022/08/12 06:08:52;;;;;;;7.88;6.75;;;;;;;18.98;70.38;68884.44;4930701;29;20047;-77
2022/08/12 06:11:18;;;;;;;18.10;7.65;;;;;;;;;;4930834;29;20035;-77
2022/08/12 06:13:44;;;;;;;9.07;7.20;;;;;;;19.21;69.37;68904.19;4931920;29;20726;-78
2022/08/12 06:16:10;;;;;;;9.82;6.85;;;;;;;;;;4933465;29;20097;-77
2022/08/12 06:18:40;;;;;;;10.50;7.05;;;;;;;19.46;68.45;68940.84;4932924;29;20044;-79
2022/08/12 06:21:06;;;;;;;9.75;6.93;;;;;;;;;;4932943;29;20059;-76
2022/08/12 06:23:32;;;;;;;11.95;7.30;;;;;;;19.66;67.37;68960.47;4930675;29;20100;-78
2022/08/12 06:25:58;;;;;;;7.57;6.15;;;;;;;19.80;67.54;68971.06;4933049;29;20490;-77
2022/08/12 06:28:23;;;;;;;9.75;6.65;;;;;;;19.93;66.04;68990.16;4931542;29;20052;-77
2022/08/12 06:30:50;;;;;;;10.50;6.45;;;;;;;19.99;65.63;69000.28;4928881;29;20039;-77
2022/08/12 06:33:17;;;;;;;10.90;6.15;;;;;;;20.11;65.13;69010.75;4933396;29;20136;-77
2022/08/12 06:35:43;;;;;;;8.77;6.22;;;;;;;20.21;65.06;69022.19;4932602;29;20051;-78
2022/08/12 06:38:14;;;;;;;9.68;6.35;;;;;;;;;;4933888;29;20616;-78
2022/08/12 06:43:24;;;;;;;8.45;5.40;;;;;;;;;;4934637;29;20840;-78
2022/08/12 06:45:49;;;;;;;9.27;5.88;;;;;;;;;;4934998;29;20043;-77
2022/08/12 06:48:16;;;;;;;10.73;6.03;;;;;;;20.81;62.49;69088.53;4934731;29;20130;-78
2022/08/12 06:50:43;;;;;;;8.90;5.85;;;;;;;20.92;62.13;69095.72;4932067;29;20043;-79
2022/08/12 06:53:09;;;;;;;7.75;5.20;;;;;;;;;;4936690;29;20190;-76
2022/08/12 06:55:35;;;;;;;8.73;5.90;;;;;;;21.23;61.73;69138.72;4935278;29;20079;-78
2022/08/12 06:58:03;;;;;;;8.57;5.97;;;;;;;21.34;61.52;69148.59;4934689;29;20047;-78
2022/08/12 07:00:29;;;;;;;8.60;5.22;;;;;;;;;;4931544;29;20077;-77
2022/08/12 07:02:56;;;;;;;6.97;4.72;;;;;;;21.60;60.89;69177.22;4933787;29;20054;-77
2022/08/12 07:05:25;;;;;;;7.28;4.70;;;;;;;21.72;60.67;69190.38;4932760;29;20050;-77
2022/08/12 07:07:54;;;;;;;7.55;5.05;;;;;;;21.85;60.35;69205.84;4934022;29;20066;-76
2022/08/12 07:10:22;;;;;;;6.72;4.45;;;;;;;;;;4926487;29;20043;-78
2022/08/12 07:12:53;;;;;;;7.50;4.50;;;;;;;;;;4930572;29;20047;-79
2022/08/12 07:15:20;;;;;;;6.70;4.13;;;;;;;22.37;58.41;69257.69;4922188;29;20138;-77
2022/08/12 07:17:45;;;;;;;8.00;4.18;;;;;;;;;;4925443;29;20487;-78
2022/08/12 07:20:11;;;;;;;5.27;3.83;;;;;;;22.70;56.61;69300.34;4923850;29;20163;-77
2022/08/12 07:22:37;;;;;;;5.03;3.60;;;;;;;;;;4911101;29;20716;-77
2022/08/12 07:27:51;;;;;;;7.97;3.42;;;;;;;;;;4927477;29;20114;-77
2022/08/12 07:30:16;;;;;;;5.38;3.15;;;;;;;;;;4927634;29;20641;-77
2022/08/12 07:32:45;;;;;;;6.70;3.35;;;;;;;;;;4928574;29;20048;-78
2022/08/12 07:35:10;;;;;;;7.28;3.53;;;;;;;23.59;51.83;69395.19;4932990;29;20115;-78
2022/08/12 07:37:41;;;;;;;5.57;3.47;;;;;;;23.67;50.63;69403.22;4923037;29;20176;-78
2022/08/12 07:40:07;;;;;;;5.78;3.45;;;;;;;;;;4927000;29;20092;-78
2022/08/12 07:42:32;;;;;;;5.65;3.40;;;;;;;23.96;49.82;69436.47;4923656;29;20056;-77
2022/08/12 07:44:58;;;;;;;4.40;3.20;;;;;;;24.13;49.25;69454.81;4935147;29;20043;-77
2022/08/12 07:47:25;;;;;;;6.68;3.17;;;;;;;;;;4926965;29;20419;-77
2022/08/12 07:49:53;;;;;;;8.55;3.30;;;;;;;24.39;48.50;69490.06;4927706;29;20055;-77
2022/08/12 07:52:18;;;;;;;5.72;2.80;;;;;;;;;;4912531;29;20130;-78
2022/08/12 07:54:43;;;;;;;7.30;3.30;;;;;;;24.77;47.83;69527.66;4929144;29;20048;-77
2022/08/12 07:57:12;;;;;;;4.07;2.95;;;;;;;;;;4929560;29;20134;-77
2022/08/12 07:59:38;;;;;;;5.95;3.10;;;;;;;25.04;47.42;69556.91;4927942;29;20134;-78
2022/08/12 08:02:04;;;;;;;7.40;3.10;;;;;;;;;;4928905;29;20055;-77
2022/08/12 08:07:14;;;;;;;3.58;2.67;;;;;;;25.25;45.36;69578.28;4902538;29;20047;-77
2022/08/12 08:09:40;;;;;;;5.47;3.15;;;;;;;;;;4929092;29;20062;-78
2022/08/12 08:14:52;;;;;;;6.07;3.33;;;;;;;25.68;43.50;69629.22;4923660;29;20072;-77
2022/08/12 08:17:17;;;;;;;5.40;3.20;;;;;;;25.79;43.31;69639.09;4929738;29;20046;-77
2022/08/12 08:19:43;;;;;;;5.70;2.75;;;;;;;25.96;43.46;69657.50;4927789;29;20052;-77
2022/08/12 08:22:09;;;;;;;5.43;3.08;;;;;;;26.05;42.64;69670.56;4926851;29;20785;-77
2022/08/12 08:24:34;;;;;;;6.78;2.72;;;;;;;26.17;41.97;69681.59;4929624;29;20044;-77
2022/08/12 08:27:00;;;;;;;8.85;2.78;;;;;;;26.23;43.39;69688.47;4928375;29;20043;-78
2022/08/12 08:29:28;;;;;;;5.90;3.05;;;;;;;26.33;42.04;69702.72;4910010;29;20051;-78
2022/08/12 08:31:54;;;;;;;4.85;2.90;;;;;;;;;;4929276;29;20459;-77
2022/08/12 08:34:20;;;;;;;6.20;3.20;;;;;;;26.56;41.10;69728.00;4912285;29;20048;-78
2022/08/12 08:36:46;;;;;;;8.73;2.95;;;;;;;;;;4928927;29;20102;-76
2022/08/12 08:39:15;;;;;;;5.90;2.78;;;;;;;26.82;41.07;69757.28;4931853;29;20046;-77
2022/08/12 08:44:25;;;;;;;4.43;2.72;;;;;;;27.02;39.55;69785.16;4929865;29;20101;-77
2022/08/12 08:46:50;;;;;;;4.63;2.85;;;;;;;27.13;38.78;69797.78;4931932;29;20551;-78
2022/08/12 08:49:16;;;;;;;3.85;2.40;;;;;;;27.32;39.63;69813.56;4929598;29;20052;-78
2022/08/12 08:51:43;;;;;;;8.75;3.08;;;;;;;27.48;38.22;69828.66;4930076;29;20151;-78
2022/08/12 08:54:11;;;;;;;5.13;3.15;;;;;;;27.49;37.66;69832.53;4932610;29;20080;-77
2022/08/12 08:56:51;;;;;;;6.95;2.65;;;;;;;27.70;38.23;69856.09;4929922;29;20135;-78
2022/08/12 08:59:18;;;;;;;5.43;2.67;;;;;;;;;;4884488;29;20044;-78
2022/08/12 09:01:43;;;;;;;3.28;2.50;;;;;;;27.84;37.18;69869.47;4931484;29;20122;-78
2022/08/12 09:04:12;;;;;;;5.70;2.78;;;;;;;;;;4912744;29;20036;-78
2022/08/12 09:06:40;;;;;;;5.00;2.53;;;;;;;27.99;36.41;69888.88;4925718;29;20103;-77
2022/08/12 09:09:09;;;;;;;4.40;2.20;;;;;;;28.15;36.66;69906.13;4933023;29;20039;-78
2022/08/12 09:14:19;;;;;;;7.18;2.70;;;;;;;28.31;34.79;69921.75;4931193;29;20216;-77
2022/08/12 09:16:44;;;;;;;4.65;2.65;;;;;;;28.31;34.82;69924.50;4931962;29;20126;-78
2022/08/12 09:19:12;;;;;;;5.22;2.72;;;;;;;28.42;35.92;69937.16;4930130;29;20050;-77
2022/08/12 09:21:39;;;;;;;7.50;2.90;;;;;;;28.58;33.90;69951.69;4928428;29;20040;-77
2022/08/12 09:24:06;;;;;;;4.68;2.85;;;;;;;28.64;34.73;69958.59;4930906;29;20403;-77
2022/08/12 09:26:32;;;;;;;4.75;2.58;;;;;;;28.66;34.22;69960.91;4931554;29;20067;-77
2022/08/12 09:28:58;;;;;;;5.28;2.55;;;;;;;;;;4928287;29;20563;-77
2022/08/12 09:31:24;;;;;;;4.75;2.50;;;;;;;28.83;34.60;69982.59;4931423;29;20135;-78
2022/08/12 09:33:50;;;;;;;5.28;2.72;;;;;;;28.86;34.14;69983.91;4930689;29;20035;-78
2022/08/12 09:36:16;;;;;;;6.53;3.03;;;;;;;;;;4931524;29;20067;-77
2022/08/12 09:38:42;;;;;;;6.97;2.33;;;;;;;29.13;33.02;70013.81;4931300;29;20078;-77
2022/08/12 09:41:08;;;;;;;4.75;2.50;;;;;;;29.14;32.80;70015.53;4928334;29;20051;-77
2022/08/12 09:46:17;;;;;;;6.35;2.97;;;;;;;;;;4924875;29;20046;-78
2022/08/12 09:48:46;;;;;;;5.90;2.67;;;;;;;29.23;32.85;70025.91;4929089;29;20589;-77
2022/08/12 09:51:12;;;;;;;5.18;2.33;;;;;;;29.30;32.01;70032.78;4926445;29;20039;-78
2022/08/12 09:53:39;;;;;;;4.60;2.53;;;;;;;29.37;32.29;70044.16;4928915;29;20119;-78
2022/08/12 09:56:16;;;;;;;7.13;2.75;;;;;;;29.52;31.92;70058.13;4930297;29;20047;-78
2022/08/12 09:58:45;;;;;;;8.60;2.70;;;;;;;29.61;32.05;70070.63;4928638;29;20075;-78
2022/08/12 10:01:12;;;;;;;6.05;2.92;;;;;;;29.54;31.89;70057.09;4928329;29;20070;-78
2022/08/12 10:03:42;;;;;;;5.70;2.70;;;;;;;29.62;31.89;70071.78;4926005;29;20043;-79
2022/08/12 10:06:08;;;;;;;5.22;2.70;;;;;;;29.72;31.61;70080.56;4937058;29;20044;-77
2022/08/12 10:08:34;;;;;;;8.20;3.10;;;;;;;29.72;31.13;70082.72;4930912;29;20035;-77
2022/08/12 10:13:48;;;;;;;4.10;2.80;;;;;;;29.79;32.10;70091.34;4924693;29;20699;-78
2022/08/12 10:16:18;;;;;;;5.88;2.90;;;;;;;;;;4926488;29;20036;-78
2022/08/12 10:18:46;;;;;;;5.32;2.78;;;;;;;29.80;31.95;70089.19;4929296;29;20082;-78
2022/08/12 10:21:14;;;;;;;7.20;2.47;;;;;;;30.04;30.55;70114.06;4929537;29;20122;-78
2022/08/12 10:23:41;;;;;;;7.37;2.83;;;;;;;30.01;30.61;70115.53;4928027;29;20087;-78
2022/08/12 10:31:40;;;;;;;4.45;2.50;;;;;;;30.06;29.94;70118.53;4929215;29;20046;-78
2022/08/12 10:34:10;;;;;;;5.97;2.78;;;;;;;29.98;30.57;70112.06;4930824;29;20623;-78
2022/08/12 10:36:39;;;;;;;7.50;2.38;;;;;;;29.96;29.60;70104.88;4929620;29;20055;-78
2022/08/12 10:39:06;;;;;;;4.55;2.60;;;;;;;30.16;29.68;70132.22;4929975;29;20103;-78
2022/08/12 10:44:15;;;;;;;5.35;2.53;;;;;;;30.46;29.85;70163.44;4917769;29;20046;-78
2022/08/12 10:46:41;;;;;;;5.85;2.85;;;;;;;30.39;29.79;70155.41;4929445;29;20115;-77
2022/08/12 10:49:07;;;;;;;4.30;2.58;;;;;;;30.52;29.77;70168.19;4929206;29;20043;-77
2022/08/12 10:51:32;;;;;;;5.43;2.72;;;;;;;30.64;28.03;70186.91;4925856;29;20115;-78
2022/08/12 10:53:58;;;;;;;5.10;2.80;;;;;;;30.47;29.00;70167.34;4928388;29;22332;-77
2022/08/12 10:56:24;;;;;;;5.63;2.50;;;;;;;30.46;29.33;70166.78;4928609;29;20040;-78
2022/08/12 10:58:51;;;;;;;4.45;2.60;;;;;;;30.41;29.88;70158.25;4928889;29;20047;-77
2022/08/12 11:01:17;;;;;;;6.07;2.67;;;;;;;30.53;28.82;70171.53;4928744;29;20059;-77
2022/08/12 11:03:42;;;;;;;5.13;2.13;;;;;;;30.58;28.61;70177.25;4930298;29;20035;-77
2022/08/12 11:06:10;;;;;;;6.78;2.50;;;;;;;30.49;28.24;70167.47;4930337;29;20459;-77
2022/08/12 11:08:38;;;;;;;4.20;2.25;;;;;;;30.32;28.47;70148.47;4935409;29;20035;-77
2022/08/12 11:11:07;;;;;;;3.95;2.45;;;;;;;30.38;28.62;70156.97;4899261;29;20189;-77
2022/08/12 11:13:36;;;;;;;4.70;2.40;;;;;;;30.42;28.01;70161.59;4930848;29;20039;-77
2022/08/12 11:16:04;;;;;;;4.32;2.55;;;;;;;30.53;27.92;70174.25;4926664;29;20454;-78
2022/08/12 11:18:30;;;;;;;3.58;2.70;;;;;;;30.45;28.67;70165.06;4938389;29;20113;-78
2022/08/12 11:20:55;;;;;;;7.82;2.50;;;;;;;30.39;27.63;70155.41;4930934;29;20027;-78
2022/08/12 11:23:21;;;;;;;5.97;2.50;;;;;;;30.65;28.53;70185.31;4928166;29;20071;-78
2022/08/12 11:25:49;;;;;;;6.13;2.58;;;;;;;30.95;28.35;70222.06;4928546;29;20044;-78
2022/08/12 11:28:15;;;;;;;5.20;2.58;;;;;;;30.80;27.05;70202.63;4928798;29;20497;-77
2022/08/12 11:30:41;;;;;;;5.95;2.50;;;;;;;30.54;28.34;70173.22;4928081;29;20067;-78
2022/08/12 11:33:07;;;;;;;4.10;2.53;;;;;;;30.85;28.25;70204.47;4930396;29;20040;-78
2022/08/12 11:35:35;;;;;;;7.38;2.28;;;;;;;31.09;27.74;70234.84;4929628;29;20047;-78
2022/08/12 11:38:00;;;;;;;3.00;2.30;;;;;;;31.21;27.97;70248.66;4929594;29;20051;-78
2022/08/12 11:40:27;;;;;;;4.22;2.47;;;;;;;31.33;28.02;70258.59;4929886;29;20039;-77
2022/08/12 11:42:52;;;;;;;6.03;2.55;;;;;;;31.31;27.00;70259.06;4927242;29;20127;-78
2022/08/12 11:45:18;;;;;;;5.10;2.13;;;;;;;31.25;27.81;70253.28;4926242;29;20525;-78
2022/08/12 11:47:44;;;;;;;6.22;2.30;;;;;;;31.47;27.68;70274.75;4927040;29;20508;-77
2022/08/12 11:50:10;;;;;;;9.00;2.40;;;;;;;31.32;26.69;70260.78;4927890;29;20095;-78
2022/08/12 11:52:35;;;;;;;3.78;2.00;;;;;;;31.23;27.19;70250.41;4925669;29;20456;-78
2022/08/12 11:55:01;;;;;;;4.63;2.40;;;;;;;31.29;26.90;70256.75;4925602;29;20051;-78
2022/08/12 11:57:26;;;;;;;4.20;2.13;;;;;;;31.27;27.78;70251.69;4927665;29;20040;-78
2022/08/12 11:59:52;;;;;;;3.35;2.47;;;;;;;31.46;27.43;70276.34;4926819;29;20040;-77
2022/08/12 12:02:18;;;;;;;4.57;2.25;;;;;;;31.64;27.45;70294.31;4927292;29;20518;-78
2022/08/12 12:04:43;;;;;;;5.93;2.30;;;;;;;31.50;27.02;70280.94;4926892;29;20470;-78
2022/08/12 12:07:09;;;;;;;7.13;2.30;;;;;;;31.51;27.18;70281.53;4928429;29;20135;-78
2022/08/12 12:09:35;;;;;;;4.45;2.40;;;;;;;31.70;26.92;70303.97;4930670;29;20633;-78
2022/08/12 12:12:03;;;;;;;6.82;2.47;;;;;;;31.78;26.26;70312.06;4928863;29;20046;-78
2022/08/12 12:14:29;;;;;;;2.95;2.15;;;;;;;31.67;25.82;70297.78;4925447;29;20571;-78
2022/08/12 12:16:54;;;;;;;5.45;2.40;;;;;;;31.67;26.26;70300.53;4932562;29;20050;-77
2022/08/12 12:19:19;;;;;;;5.82;2.40;;;;;;;31.79;26.25;70310.44;4932959;29;20040;-78
2022/08/12 12:21:45;;;;;;;5.43;2.30;;;;;;;31.92;26.09;70328.22;4931548;29;20039;-78
2022/08/12 12:24:10;;;;;;;5.40;2.30;;;;;;;31.85;25.55;70317.38;4932924;29;20035;-79
2022/08/12 12:26:36;;;;;;;3.38;2.20;;;;;;;31.82;26.82;70316.66;4933550;29;20551;-78
2022/08/12 12:29:01;;;;;;;4.72;2.28;;;;;;;31.94;26.46;70330.53;4931548;29;20071;-79
2022/08/12 12:31:27;;;;;;;8.02;2.53;;;;;;;32.04;26.08;70342.03;4932730;29;20388;-78
2022/08/12 12:33:52;;;;;;;5.45;2.08;;;;;;;32.34;26.62;70375.44;4930776;29;20175;-78
2022/08/12 12:36:18;;;;;;;6.28;2.15;;;;;;;32.16;26.12;70351.97;4931705;29;20063;-78
2022/08/12 12:38:43;;;;;;;5.95;2.17;;;;;;;32.17;26.58;70355.84;4930682;29;20063;-78
2022/08/12 12:41:09;;;;;;;3.10;1.98;;;;;;;32.03;25.89;70340.88;4933379;29;20118;-78
2022/08/12 12:43:34;;;;;;;6.97;2.30;;;;;;;32.24;26.40;70361.19;4936473;29;20039;-79
2022/08/12 12:45:59;;;;;;;3.55;2.28;;;;;;;32.48;25.81;70394.38;4936634;29;20380;-78
2022/08/12 12:48:25;;;;;;;5.55;2.25;;;;;;;32.74;26.26;70417.66;4938852;29;20038;-79
2022/08/12 12:53:48;;;;;;;5.88;1.92;;;;;;;32.59;25.91;70403.72;4938305;29;20103;-79
2022/08/12 12:56:22;;;;;;;3.22;1.83;;;;;;;32.65;26.13;70407.88;4919851;29;20078;-78
2022/08/12 12:58:52;;;;;;;3.30;1.85;;;;;;;32.85;25.42;70429.78;4934670;29;20062;-79
2022/08/12 13:01:24;;;;;;;4.93;1.92;;;;;;;33.01;25.49;70448.25;4933925;29;20046;-78
2022/08/12 13:03:55;;;;;;;6.45;2.15;;;;;;;33.17;24.94;70468.88;4929772;29;20039;-78
2022/08/12 13:06:24;;;;;;;3.65;2.00;;;;;;;33.14;25.13;70465.41;4926640;29;20052;-78
2022/08/12 13:08:53;;;;;;;4.40;1.65;;;;;;;;;;4927551;29;20090;-78
2022/08/12 13:11:21;;;;;;;3.63;1.88;;;;;;;33.25;25.80;70478.09;4929425;29;20448;-78
2022/08/12 13:13:55;;;;;;;5.13;2.13;;;;;;;33.38;24.82;70490.34;4929300;29;20067;-78
2022/08/12 13:16:20;;;;;;;2.38;1.60;;;;;;;33.49;25.39;70505.19;4923681;29;20709;-78
2022/08/12 13:18:49;;;;;;;5.00;1.80;;;;;;;33.67;24.39;70522.66;4929459;29;20048;-78
2022/08/12 13:21:16;;;;;;;3.95;1.85;;;;;;;33.81;25.05;70538.81;4924776;29;20542;-78
2022/08/12 13:23:44;;;;;;;4.03;1.80;;;;;;;33.80;24.15;70534.88;4930482;29;20606;-78
2022/08/12 13:26:11;;;;;;;3.08;1.92;;;;;;;33.72;24.62;70531.16;4930074;29;20138;-78
2022/08/12 13:28:36;;;;;;;4.35;2.05;;;;;;;33.68;24.40;70524.38;4913373;29;20039;-78
2022/08/12 13:31:01;;;;;;;4.05;1.80;;;;;;;33.78;24.71;70534.75;4929683;29;20055;-78
2022/08/12 13:33:28;;;;;;;3.65;1.65;;;;;;;33.88;24.66;70549.63;4928670;29;20054;-78
2022/08/12 13:36:02;;;;;;;3.92;1.80;;;;;;;33.82;24.03;70539.94;4928760;29;20460;-78
2022/08/12 13:38:40;;;;;;;7.82;2.10;;;;;;;33.97;24.95;70558.88;4930528;29;20063;-78
2022/08/12 13:41:31;;;;;;;4.20;1.67;;;;;;;33.83;24.55;70541.09;4928813;29;20403;-78
2022/08/12 13:43:55;;;;;;;3.38;1.80;;;;;;;33.92;25.79;70548.72;4929260;29;20039;-78
2022/08/12 13:46:21;;;;;;;4.90;1.80;;;;;;;33.85;25.03;70540.66;4930253;29;20059;-78
2022/08/12 13:48:46;;;;;;;5.63;2.10;;;;;;;33.91;24.90;70553.09;4930030;29;20039;-78
2022/08/12 13:51:12;;;;;;;2.90;1.40;;;;;;;33.78;25.49;70534.75;4931536;29;20067;-79
2022/08/12 13:53:39;;;;;;;3.95;2.00;;;;;;;33.86;25.08;70544.56;4930473;29;20139;-79
2022/08/12 13:56:04;;;;;;;3.78;1.70;;;;;;;33.93;24.80;70552.66;4931008;29;20198;-78
2022/08/12 13:58:30;;;;;;;4.10;1.90;;;;;;;33.93;24.64;70555.41;4932257;29;20135;-78
2022/08/12 14:00:56;;;;;;;3.67;1.92;;;;;;;33.75;23.89;70529.13;4930233;29;20047;-78
2022/08/12 14:03:23;;;;;;;6.65;1.88;;;;;;;33.84;24.31;70541.69;4933277;29;20431;-79
2022/08/12 14:05:49;;;;;;;4.70;1.83;;;;;;;33.95;25.10;70556.56;4931434;29;20408;-77
2022/08/12 14:08:15;;;;;;;3.50;1.70;;;;;;;34.17;25.42;70578.63;4929432;29;20039;-77
2022/08/12 14:10:48;;;;;;;6.13;1.80;;;;;;;34.31;24.58;70592.59;4929867;29;20499;-78